createdAt,value
2018-06-02T00:01:04.243Z,131.13
2018-06-02T00:03:32.744Z,136.50
2018-06-02T00:06:00.450Z,118.80
2018-06-02T00:08:28.019Z,137.50
2018-06-02T00:10:55.718Z,151.07
2018-06-02T00:13:23.371Z,119.27
2018-06-02T00:15:51.150Z,140.03
2018-06-02T00:18:19.004Z,119.77
2018-06-02T00:20:46.758Z,116.17
2018-06-02T00:23:14.533Z,130.90
2018-06-02T00:25:42.235Z,148.00
2018-06-02T00:28:09.964Z,140.60
2018-06-02T00:30:37.567Z,131.80
2018-06-02T00:33:05.745Z,143.13
2018-06-02T00:35:33.535Z,138.40
2018-06-02T00:38:04.860Z,132.20
2018-06-02T00:40:32.611Z,141.47
2018-06-02T00:43:00.283Z,129.60
2018-06-02T00:45:27.967Z,132.37
2018-06-02T00:47:55.740Z,162.27
2018-06-02T00:50:23.512Z,157.13
2018-06-02T00:52:51.244Z,147.77
2018-06-02T00:55:19.712Z,157.20
2018-06-02T00:57:47.571Z,141.10
2018-06-02T01:00:15.167Z,147.60
2018-06-02T01:02:42.774Z,162.27
2018-06-02T01:05:10.409Z,163.60
2018-06-02T01:07:38.016Z,141.90
2018-06-02T01:10:05.607Z,186.53
2018-06-02T01:12:33.214Z,249.57
2018-06-02T01:15:00.820Z,236.03
2018-06-02T01:17:28.390Z,278.10
2018-06-02T01:19:56.058Z,241.77
2018-06-02T01:22:23.659Z,286.33
2018-06-02T01:24:51.251Z,287.40
2018-06-02T01:27:19.584Z,285.87
2018-06-02T01:29:47.211Z,277.53
2018-06-02T01:32:14.825Z,297.73
2018-06-02T01:34:42.390Z,266.07
2018-06-02T01:37:09.988Z,275.80
2018-06-02T01:39:37.600Z,263.03
2018-06-02T01:42:05.200Z,255.77
2018-06-02T01:44:32.749Z,273.50
2018-06-02T01:47:00.343Z,266.37
2018-06-02T01:49:27.972Z,246.63
2018-06-02T01:51:55.557Z,251.00
2018-06-02T01:54:23.157Z,240.50
2018-06-02T01:56:50.712Z,258.80
2018-06-02T01:59:18.306Z,254.60
2018-06-02T02:01:45.888Z,256.87
2018-06-02T02:04:13.528Z,249.43
2018-06-02T02:06:41.120Z,252.40
2018-06-02T02:09:08.692Z,279.97
2018-06-02T02:11:38.197Z,236.90
2018-06-02T02:14:05.779Z,269.63
2018-06-02T02:16:34.199Z,253.43
2018-06-02T02:19:01.808Z,246.73
2018-06-02T02:21:29.384Z,265.63
2018-06-02T02:23:57.752Z,330.93
2018-06-02T02:26:26.104Z,312.23
2018-06-02T02:28:53.680Z,315.00
2018-06-02T02:31:21.279Z,320.73
2018-06-02T02:33:48.869Z,316.10
2018-06-02T02:36:16.457Z,320.63
2018-06-02T02:38:44.099Z,339.47
2018-06-02T02:41:11.731Z,334.97
2018-06-02T02:43:39.367Z,344.83
2018-06-02T02:46:06.955Z,382.47
2018-06-02T02:48:34.542Z,370.33
2018-06-02T02:51:02.129Z,369.10
2018-06-02T02:53:29.760Z,294.73
2018-06-02T02:55:57.335Z,325.37
2018-06-02T02:58:25.692Z,318.30
2018-06-02T03:00:54.290Z,313.17
2018-06-02T03:03:21.898Z,335.63
2018-06-02T03:05:49.453Z,326.37
2018-06-02T03:08:17.144Z,325.80
2018-06-02T03:10:44.768Z,328.37
2018-06-02T03:13:12.403Z,274.80
2018-06-02T03:15:40.783Z,217.07
2018-06-02T03:18:09.094Z,220.37
2018-06-02T03:20:36.701Z,224.40
2018-06-02T03:23:04.267Z,195.50
2018-06-02T03:25:32.622Z,213.20
2018-06-02T03:28:00.168Z,213.07
2018-06-02T03:30:27.791Z,199.27
2018-06-02T03:32:55.380Z,178.50
2018-06-02T03:35:23.016Z,163.97
2018-06-02T03:37:50.572Z,162.27
2018-06-02T03:40:18.164Z,162.10
2018-06-02T03:42:45.760Z,145.83
2018-06-02T03:45:14.153Z,165.47
2018-06-02T03:47:41.740Z,143.77
2018-06-02T03:50:09.349Z,153.07
2018-06-02T03:52:37.018Z,154.47
2018-06-02T03:55:05.403Z,132.30
2018-06-02T03:57:33.005Z,162.03
2018-06-02T04:00:04.292Z,164.13
2018-06-02T04:02:31.914Z,146.00
2018-06-02T04:04:59.538Z,137.83
2018-06-02T04:07:27.162Z,139.17
2018-06-02T04:09:58.113Z,136.60
2018-06-02T04:12:26.467Z,134.10
2018-06-02T04:14:54.050Z,127.60
2018-06-02T04:17:22.395Z,137.40
2018-06-02T04:19:49.952Z,144.80
2018-06-02T04:22:17.560Z,133.07
2018-06-02T04:24:45.131Z,128.57
2018-06-02T04:27:12.736Z,121.10
2018-06-02T04:29:40.295Z,138.27
2018-06-02T04:32:07.903Z,116.57
2018-06-02T04:34:35.471Z,111.67
2018-06-02T04:37:03.150Z,109.60
2018-06-02T04:39:30.710Z,96.17
2018-06-02T04:41:58.291Z,112.33
2018-06-02T04:44:25.898Z,99.53
2018-06-02T04:46:53.479Z,117.80
2018-06-02T04:49:21.065Z,92.60
2018-06-02T04:51:48.675Z,96.57
2018-06-02T04:54:16.270Z,91.60
2018-06-02T04:56:43.874Z,99.70
2018-06-02T04:59:11.465Z,93.43
2018-06-02T05:01:39.127Z,94.13
2018-06-02T05:04:06.788Z,96.23
2018-06-02T05:06:34.370Z,104.40
2018-06-02T05:09:01.937Z,93.73
2018-06-02T05:11:29.496Z,81.70
2018-06-02T05:13:57.094Z,89.77
2018-06-02T05:16:24.716Z,78.00
2018-06-02T05:18:52.301Z,86.87
2018-06-02T05:21:20.670Z,84.73
2018-06-02T05:23:49.039Z,84.43
2018-06-02T05:26:16.603Z,111.80
2018-06-02T05:28:44.935Z,105.73
2018-06-02T05:31:12.571Z,85.20
2018-06-02T05:33:40.145Z,90.23
2018-06-02T05:36:07.726Z,101.77
2018-06-02T05:38:35.290Z,87.87
2018-06-02T05:41:02.877Z,88.23
2018-06-02T05:43:31.198Z,101.13
2018-06-02T05:45:58.819Z,93.73
2018-06-02T05:48:26.326Z,95.23
2018-06-02T05:50:53.953Z,93.60
2018-06-02T05:53:21.562Z,92.87
2018-06-02T05:55:49.167Z,109.63
2018-06-02T05:58:16.732Z,106.33
2018-06-02T06:00:44.292Z,102.83
2018-06-02T06:03:11.913Z,101.50
2018-06-02T06:05:39.528Z,102.20
2018-06-02T06:08:07.165Z,117.03
2018-06-02T06:10:34.752Z,94.50
2018-06-02T06:13:02.376Z,99.17
2018-06-02T06:15:30.002Z,102.47
2018-06-02T06:17:58.443Z,98.63
2018-06-02T06:20:26.045Z,105.60
2018-06-02T06:22:53.638Z,104.60
2018-06-02T06:25:21.234Z,105.90
2018-06-02T06:27:48.881Z,117.77
2018-06-02T06:30:16.504Z,127.37
2018-06-02T06:32:47.339Z,127.53
2018-06-02T06:35:14.930Z,129.47
2018-06-02T06:37:42.472Z,134.20
2018-06-02T06:40:10.089Z,133.83
2018-06-02T06:42:37.677Z,120.60
2018-06-02T06:45:05.308Z,124.77
2018-06-02T06:47:32.901Z,163.27
2018-06-02T06:50:00.471Z,136.83
2018-06-02T06:52:28.097Z,136.30
2018-06-02T06:54:56.448Z,140.10
2018-06-02T06:57:24.067Z,129.47
2018-06-02T06:59:51.688Z,132.27
2018-06-02T07:02:19.255Z,141.50
2018-06-02T07:04:47.616Z,145.03
2018-06-02T07:07:15.261Z,134.30
2018-06-02T07:09:42.898Z,123.30
2018-06-02T07:12:10.522Z,133.07
2018-06-02T07:14:38.881Z,127.57
2018-06-02T07:17:06.519Z,120.70
2018-06-02T07:19:34.110Z,150.73
2018-06-02T07:22:02.546Z,131.57
2018-06-02T07:24:30.179Z,138.20
2018-06-02T07:26:57.785Z,135.37
2018-06-02T07:29:25.397Z,126.77
2018-06-02T07:31:53.055Z,145.60
2018-06-02T07:34:20.710Z,148.50
2018-06-02T07:36:48.307Z,134.20
2018-06-02T07:39:16.010Z,127.93
2018-06-02T07:41:44.366Z,138.20
2018-06-02T07:44:11.964Z,131.70
2018-06-02T07:46:39.557Z,145.30
2018-06-02T07:49:07.161Z,132.40
2018-06-02T07:51:35.506Z,123.57
2018-06-02T07:54:03.089Z,128.37
2018-06-02T07:56:31.465Z,115.47
2018-06-02T07:58:59.143Z,112.63
2018-06-02T08:01:26.786Z,117.07
2018-06-02T08:03:55.156Z,116.40
2018-06-02T08:06:22.783Z,131.20
2018-06-02T08:08:50.360Z,112.80
2018-06-02T08:11:18.000Z,109.43
2018-06-02T08:13:45.584Z,113.73
2018-06-02T08:16:13.277Z,119.83
2018-06-02T08:18:41.633Z,122.03
2018-06-02T08:21:09.968Z,129.03
2018-06-02T08:23:37.584Z,131.30
2018-06-02T08:26:06.001Z,120.53
2018-06-02T08:28:33.612Z,137.43
2018-06-02T08:31:01.352Z,131.90
2018-06-02T08:33:29.047Z,127.33
2018-06-02T08:35:56.599Z,136.07
2018-06-02T08:38:24.215Z,134.30
2018-06-02T08:40:51.781Z,131.47
2018-06-02T08:43:19.419Z,130.70
2018-06-02T08:45:47.024Z,142.23
2018-06-02T08:48:14.656Z,139.43
2018-06-02T08:50:42.305Z,117.70
2018-06-02T08:53:09.947Z,119.63
2018-06-02T08:55:38.597Z,132.53
2018-06-02T08:58:07.042Z,125.50
2018-06-02T09:00:34.644Z,119.93
2018-06-02T09:03:03.045Z,129.67
2018-06-02T09:05:30.619Z,129.30
2018-06-02T09:07:58.289Z,125.13
2018-06-02T09:10:25.887Z,100.17
2018-06-02T09:12:54.304Z,116.90
2018-06-02T09:15:22.861Z,122.33
2018-06-02T09:17:51.253Z,135.93
2018-06-02T09:20:18.833Z,130.83
2018-06-02T09:22:46.464Z,128.87
2018-06-02T09:25:14.027Z,117.57
2018-06-02T09:27:41.684Z,105.60
2018-06-02T09:30:09.239Z,106.17
2018-06-02T09:32:37.734Z,94.17
2018-06-02T09:35:05.387Z,103.53
2018-06-02T09:37:32.916Z,90.63
2018-06-02T09:40:01.277Z,109.20
2018-06-02T09:42:29.007Z,97.80
2018-06-02T09:44:56.570Z,90.00
2018-06-02T09:47:24.205Z,72.10
2018-06-02T09:49:51.855Z,88.30
2018-06-02T09:52:19.436Z,91.00
2018-06-02T09:54:47.028Z,92.33
2018-06-02T09:57:14.635Z,81.40
2018-06-02T09:59:42.218Z,88.90
2018-06-02T10:02:09.867Z,84.50
2018-06-02T10:04:37.475Z,87.10
2018-06-02T10:07:05.076Z,83.40
2018-06-02T10:09:32.692Z,83.40
2018-06-02T10:12:00.308Z,77.03
2018-06-02T10:14:27.872Z,79.00
2018-06-02T10:16:55.455Z,74.40
2018-06-02T10:19:23.047Z,67.30
2018-06-02T10:21:51.392Z,73.80
2018-06-02T10:24:18.962Z,67.20
2018-06-02T10:26:46.613Z,54.30
2018-06-02T10:29:14.241Z,71.53
2018-06-02T10:31:41.814Z,67.17
2018-06-02T10:34:09.419Z,60.03
2018-06-02T10:36:37.765Z,62.37
2018-06-02T10:39:05.378Z,56.10
2018-06-02T10:41:32.939Z,61.43
2018-06-02T10:44:00.594Z,75.53
2018-06-02T10:46:28.214Z,68.47
2018-06-02T10:48:55.864Z,68.47
2018-06-02T10:51:23.439Z,63.83
2018-06-02T10:53:51.069Z,58.57
2018-06-02T10:56:18.896Z,63.07
2018-06-02T10:58:46.527Z,66.23
2018-06-02T11:01:14.116Z,61.57
2018-06-02T11:03:41.720Z,64.70
2018-06-02T11:06:09.292Z,64.97
2018-06-02T11:08:36.962Z,66.53
2018-06-02T11:11:05.294Z,73.17
2018-06-02T11:13:32.895Z,71.00
2018-06-02T11:16:00.469Z,69.70
2018-06-02T11:18:28.947Z,67.33
2018-06-02T11:20:57.332Z,71.13
2018-06-02T11:23:24.973Z,64.20
2018-06-02T11:25:52.616Z,81.40
2018-06-02T11:28:20.362Z,87.07
2018-06-02T11:30:47.996Z,87.23
2018-06-02T11:33:15.664Z,90.77
2018-06-02T11:35:43.255Z,73.00
2018-06-02T11:38:10.872Z,74.60
2018-06-02T11:40:38.435Z,84.87
2018-06-02T11:43:06.054Z,78.37
2018-06-02T11:45:33.630Z,75.60
2018-06-02T11:48:01.215Z,88.40
2018-06-02T11:50:28.816Z,79.80
2018-06-02T11:52:56.495Z,78.70
2018-06-02T11:55:24.892Z,82.33
2018-06-02T11:57:52.542Z,72.13
2018-06-02T12:00:20.929Z,79.80
2018-06-02T12:02:48.545Z,84.53
2018-06-02T12:05:16.144Z,70.23
2018-06-02T12:07:43.831Z,83.33
2018-06-02T12:10:11.428Z,83.87
2018-06-02T12:12:39.034Z,77.10
2018-06-02T12:15:06.659Z,71.53
2018-06-02T12:17:34.265Z,69.10
2018-06-02T12:20:01.858Z,54.87
2018-06-02T12:22:29.571Z,81.70
2018-06-02T12:24:57.223Z,66.20
2018-06-02T12:27:24.795Z,76.13
2018-06-02T12:29:52.436Z,75.00
2018-06-02T12:32:20.778Z,67.90
2018-06-02T12:34:48.380Z,67.60
2018-06-02T12:37:16.723Z,69.90
2018-06-02T12:39:44.347Z,60.93
2018-06-02T12:42:11.919Z,61.53
2018-06-02T12:44:39.511Z,53.90
2018-06-02T12:47:07.876Z,58.90
2018-06-02T12:49:35.515Z,56.60
2018-06-02T12:52:03.110Z,62.40
2018-06-02T12:54:31.495Z,56.43
2018-06-02T12:56:59.820Z,51.90
2018-06-02T12:59:28.302Z,54.63
2018-06-02T13:01:55.884Z,51.17
2018-06-02T13:04:23.547Z,49.40
2018-06-02T13:06:51.185Z,48.27
2018-06-02T13:09:18.819Z,48.40
2018-06-02T13:11:46.419Z,46.30
2018-06-02T13:14:14.009Z,53.97
2018-06-02T13:16:41.679Z,50.77
2018-06-02T13:19:09.322Z,39.77
2018-06-02T13:21:37.678Z,42.70
2018-06-02T13:24:05.365Z,38.73
2018-06-02T13:26:33.742Z,45.13
2018-06-02T13:29:02.120Z,38.20
2018-06-02T13:31:30.563Z,38.47
2018-06-02T13:33:58.239Z,42.40
2018-06-02T13:36:25.827Z,45.67
2018-06-02T13:38:54.220Z,42.97
2018-06-02T13:41:21.796Z,45.93
2018-06-02T13:43:49.403Z,44.20
2018-06-02T13:46:17.764Z,49.67
2018-06-02T13:48:45.415Z,45.93
2018-06-02T13:51:13.005Z,43.80
2018-06-02T13:53:41.406Z,39.27
2018-06-02T13:56:08.995Z,36.57
2018-06-02T13:58:36.615Z,45.40
2018-06-02T14:01:04.183Z,41.50
2018-06-02T14:03:31.771Z,46.23
2018-06-02T14:05:59.440Z,50.73
2018-06-02T14:08:27.052Z,44.10
2018-06-02T14:10:54.671Z,45.70
2018-06-02T14:13:22.331Z,39.60
2018-06-02T14:15:49.919Z,37.27
2018-06-02T14:18:19.131Z,40.97
2018-06-02T14:20:46.716Z,36.77
2018-06-02T14:23:14.356Z,28.03
2018-06-02T14:25:42.077Z,24.37
2018-06-02T14:28:09.612Z,27.30
2018-06-02T14:30:37.222Z,24.93
2018-06-02T14:33:05.588Z,22.53
2018-06-02T14:35:33.192Z,22.73
2018-06-02T14:38:00.823Z,23.30
2018-06-02T14:40:28.383Z,26.63
2018-06-02T14:42:56.068Z,24.67
2018-06-02T14:45:23.660Z,30.73
2018-06-02T14:47:51.256Z,25.37
2018-06-02T14:50:18.872Z,24.20
2018-06-02T14:52:46.442Z,23.37
2018-06-02T14:55:14.174Z,26.80
2018-06-02T14:57:41.732Z,33.23
2018-06-02T15:00:09.346Z,26.33
2018-06-02T15:02:37.708Z,26.97
2018-06-02T15:05:05.482Z,27.60
2018-06-02T15:07:33.888Z,23.30
2018-06-02T15:10:01.572Z,24.40
2018-06-02T15:12:29.182Z,34.83
2018-06-02T15:14:56.763Z,25.67
2018-06-02T15:17:24.394Z,26.43
2018-06-02T15:19:52.024Z,27.07
2018-06-02T15:22:19.651Z,30.57
2018-06-02T15:24:47.287Z,26.07
2018-06-02T15:27:15.605Z,30.43
2018-06-02T15:29:43.231Z,25.67
2018-06-02T15:32:10.812Z,33.93
2018-06-02T15:34:38.462Z,28.03
2018-06-02T15:37:06.048Z,24.73
2018-06-02T15:39:33.621Z,31.47
2018-06-02T15:42:01.214Z,27.10
2018-06-02T15:44:28.848Z,29.97
2018-06-02T15:46:56.436Z,27.67
2018-06-02T15:49:24.888Z,33.10
2018-06-02T15:51:52.495Z,31.93
2018-06-02T15:54:20.080Z,24.77
2018-06-02T15:56:47.699Z,25.10
2018-06-02T15:59:15.660Z,29.23
2018-06-02T16:01:44.127Z,25.60
2018-06-02T16:04:12.510Z,23.93
2018-06-02T16:06:40.875Z,34.97
2018-06-02T16:09:08.498Z,23.00
2018-06-02T16:11:36.083Z,24.73
2018-06-02T16:14:03.681Z,26.77
2018-06-02T16:16:31.278Z,23.73
2018-06-02T16:18:59.004Z,23.20
2018-06-02T16:21:26.582Z,22.97
2018-06-02T16:23:54.201Z,27.07
2018-06-02T16:26:22.551Z,21.53
2018-06-02T16:28:50.177Z,20.20
2018-06-02T16:31:17.756Z,24.23
2018-06-02T16:33:45.418Z,23.73
2018-06-02T16:36:13.075Z,22.63
2018-06-02T16:38:40.755Z,22.17
2018-06-02T16:41:08.447Z,22.37
2018-06-02T16:43:36.817Z,22.53
2018-06-02T16:46:04.424Z,24.00
2018-06-02T16:48:32.007Z,38.93
2018-06-02T16:50:59.618Z,35.70
2018-06-02T16:53:27.211Z,29.80
2018-06-02T16:55:54.938Z,29.17
2018-06-02T16:58:24.375Z,30.50
2018-06-02T17:00:51.938Z,29.37
2018-06-02T17:03:19.596Z,27.83
2018-06-02T17:05:47.247Z,29.80
2018-06-02T17:08:14.844Z,27.77
2018-06-02T17:10:43.303Z,30.03
2018-06-02T17:13:10.896Z,27.37
2018-06-02T17:15:39.288Z,24.00
2018-06-02T17:18:06.938Z,30.90
2018-06-02T17:20:34.587Z,27.47
2018-06-02T17:23:02.187Z,33.30
2018-06-02T17:25:29.808Z,26.23
2018-06-02T17:27:58.220Z,26.73
2018-06-02T17:30:25.827Z,27.43
2018-06-02T17:32:53.439Z,34.37
2018-06-02T17:35:21.056Z,27.80
2018-06-02T17:37:49.481Z,23.13
2018-06-02T17:40:17.099Z,25.87
2018-06-02T17:42:45.477Z,26.23
2018-06-02T17:45:13.916Z,28.43
2018-06-02T17:47:42.496Z,28.00
2018-06-02T17:50:10.106Z,25.17
2018-06-02T17:52:37.748Z,29.97
2018-06-02T17:55:05.405Z,25.00
2018-06-02T17:57:33.123Z,27.13
2018-06-02T18:00:00.698Z,25.40
2018-06-02T18:02:28.423Z,31.83
2018-06-02T18:04:56.016Z,26.57
2018-06-02T18:07:23.599Z,26.03
2018-06-02T18:09:51.218Z,25.17
2018-06-02T18:12:18.842Z,28.60
2018-06-02T18:14:47.202Z,23.80
2018-06-02T18:17:14.839Z,32.33
2018-06-02T18:19:42.457Z,36.00
2018-06-02T18:22:10.032Z,31.63
2018-06-02T18:24:37.649Z,29.53
2018-06-02T18:27:06.029Z,37.27
2018-06-02T18:29:34.435Z,31.70
2018-06-02T18:32:02.038Z,40.43
2018-06-02T18:34:29.693Z,30.43
2018-06-02T18:36:57.302Z,33.80
2018-06-02T18:39:24.917Z,33.90
2018-06-02T18:41:52.544Z,39.13
2018-06-02T18:44:20.234Z,35.27
2018-06-02T18:46:47.900Z,35.60
2018-06-02T18:49:15.540Z,34.47
2018-06-02T18:51:43.136Z,36.37
2018-06-02T18:54:11.604Z,35.40
2018-06-02T18:56:39.264Z,32.80
2018-06-02T18:59:06.869Z,36.10
2018-06-02T19:01:34.544Z,39.50
2018-06-02T19:04:02.113Z,42.10
2018-06-02T19:06:29.709Z,38.43
2018-06-02T19:08:58.048Z,41.63
2018-06-02T19:11:25.648Z,38.33
2018-06-02T19:13:54.031Z,37.97
2018-06-02T19:16:22.354Z,45.80
2018-06-02T19:18:50.013Z,41.93
2018-06-02T19:21:17.591Z,41.40
2018-06-02T19:23:45.184Z,44.00
2018-06-02T19:26:13.587Z,37.20
2018-06-02T19:28:41.245Z,64.57
2018-06-02T19:31:08.840Z,47.60
2018-06-02T19:33:36.469Z,50.27
2018-06-02T19:36:04.127Z,45.53
2018-06-02T19:38:31.738Z,39.67
2018-06-02T19:40:59.365Z,41.80
2018-06-02T19:43:27.004Z,58.07
2018-06-02T19:45:54.620Z,54.10
2018-06-02T19:48:22.197Z,67.37
2018-06-02T19:50:50.614Z,62.57
2018-06-02T19:53:18.215Z,58.83
2018-06-02T19:55:46.783Z,62.30
2018-06-02T19:58:14.412Z,61.20
2018-06-02T20:00:42.122Z,70.27
2018-06-02T20:03:09.703Z,51.03
2018-06-02T20:05:38.095Z,95.20
2018-06-02T20:08:05.685Z,75.83
2018-06-02T20:10:33.307Z,75.47
2018-06-02T20:13:00.931Z,74.60
2018-06-02T20:15:28.543Z,61.50
2018-06-02T20:17:56.148Z,62.33
2018-06-02T20:20:23.792Z,71.00
2018-06-02T20:22:51.384Z,77.03
2018-06-02T20:25:19.809Z,79.43
2018-06-02T20:27:47.529Z,79.17
2018-06-02T20:30:15.858Z,74.60
2018-06-02T20:32:43.481Z,83.67
2018-06-02T20:35:12.027Z,86.10
2018-06-02T20:37:39.649Z,95.10
2018-06-02T20:40:07.252Z,77.90
2018-06-02T20:42:34.830Z,76.50
2018-06-02T20:45:03.307Z,97.47
2018-06-02T20:47:31.731Z,103.80
2018-06-02T20:49:59.327Z,105.27
2018-06-02T20:52:26.966Z,100.90
2018-06-02T20:54:54.630Z,111.93
2018-06-02T20:57:22.217Z,120.47
2018-06-02T20:59:50.577Z,140.30
2018-06-02T21:02:18.142Z,111.00
2018-06-02T21:04:45.776Z,138.53
2018-06-02T21:07:13.350Z,143.00
2018-06-02T21:09:41.029Z,139.07
2018-06-02T21:12:08.652Z,119.70
2018-06-02T21:14:36.254Z,123.83
2018-06-02T21:17:03.828Z,124.47
2018-06-02T21:19:31.400Z,115.77
2018-06-02T21:21:59.762Z,137.17
2018-06-02T21:24:27.425Z,121.37
2018-06-02T21:26:55.012Z,121.00
2018-06-02T21:29:22.585Z,131.27
2018-06-02T21:31:50.193Z,132.50
2018-06-02T21:34:17.780Z,120.87
2018-06-02T21:36:46.497Z,150.33
2018-06-02T21:39:14.054Z,144.73
2018-06-02T21:41:41.694Z,125.60
2018-06-02T21:44:09.371Z,127.67
2018-06-02T21:46:36.983Z,131.37
2018-06-02T21:49:04.565Z,118.40
2018-06-02T21:51:32.151Z,133.83
2018-06-02T21:53:59.712Z,133.20
2018-06-02T21:56:27.355Z,140.70
2018-06-02T21:58:54.911Z,163.80
2018-06-02T22:01:22.570Z,155.80
2018-06-02T22:03:50.130Z,192.17
2018-06-02T22:06:17.747Z,172.53
2018-06-02T22:08:45.366Z,181.87
2018-06-02T22:11:13.003Z,211.03
2018-06-02T22:13:40.659Z,168.00
2018-06-02T22:16:08.258Z,168.20
2018-06-02T22:18:35.824Z,150.63
2018-06-02T22:21:04.174Z,158.33
2018-06-02T22:23:31.770Z,196.93
2018-06-02T22:25:59.345Z,162.30
2018-06-02T22:28:26.913Z,186.03
2018-06-02T22:30:54.570Z,183.50
2018-06-02T22:33:22.179Z,191.70
2018-06-02T22:35:49.807Z,162.43
2018-06-02T22:38:17.425Z,183.73
2018-06-02T22:40:45.791Z,196.80
2018-06-02T22:43:13.374Z,177.37
2018-06-02T22:45:41.041Z,187.77
2018-06-02T22:48:08.605Z,184.33
2018-06-02T22:50:36.230Z,199.63
2018-06-02T22:53:05.887Z,245.60
2018-06-02T22:55:33.499Z,186.23
2018-06-02T22:58:01.906Z,190.57
2018-06-02T23:00:29.517Z,228.57
2018-06-02T23:02:57.087Z,235.40
2018-06-02T23:05:24.637Z,262.03
2018-06-02T23:07:52.247Z,263.50
2018-06-02T23:10:19.935Z,246.83
2018-06-02T23:12:47.512Z,259.30
2018-06-02T23:15:15.139Z,220.40
2018-06-02T23:17:42.742Z,201.93
2018-06-02T23:20:10.339Z,209.63
2018-06-02T23:22:38.794Z,205.57
2018-06-02T23:25:07.187Z,204.37
2018-06-02T23:27:35.764Z,222.07
2018-06-02T23:30:04.066Z,229.77
2018-06-02T23:32:31.688Z,232.93
2018-06-02T23:34:59.390Z,208.70
2018-06-02T23:37:27.045Z,199.73
2018-06-02T23:39:54.614Z,208.70
2018-06-02T23:42:22.220Z,197.93
2018-06-02T23:44:49.837Z,167.67
2018-06-02T23:47:17.466Z,186.87
2018-06-02T23:49:45.116Z,188.10
2018-06-02T23:52:12.687Z,168.10
2018-06-02T23:54:40.290Z,159.67
2018-06-02T23:57:07.846Z,172.73
2018-06-02T23:59:35.468Z,181.03
